Time;durP1;ratioP1;P1;durP2;ratioP2;P2;SDS_P1;SDS_P2;PMS_P1;PMS_P2;Temp;Humidity;BMP_temperature;BMP_pressure;BME280_temperature;BME280_humidity;BME280_pressure;Samples;Min_cycle;Max_cycle;Signal;HPM_P1;HPM_P2
2023/11/07 00:01:41;;;;;;;3.05;2.50;;;19.00;57.90;;;;;;6161338;23;20459;-86
2023/11/07 00:04:11;;;;;;;2.67;2.25;;;19.00;58.50;;;;;;6161240;23;20151;-88
2023/11/07 00:06:40;;;;;;;2.95;2.33;;;19.00;57.80;;;;;;6160510;23;20247;-86
2023/11/07 00:09:07;;;;;;;3.25;2.72;;;19.00;57.90;;;;;;6161790;23;20153;-86
2023/11/07 00:11:34;;;;;;;3.17;2.65;;;19.00;57.90;;;;;;6137055;23;20153;-86
2023/11/07 00:14:05;;;;;;;3.33;2.53;;;19.00;57.90;;;;;;6136325;23;20483;-87
2023/11/07 00:16:30;;;;;;;4.00;2.28;;;19.00;58.00;;;;;;6111499;23;20151;-87
2023/11/07 00:18:56;;;;;;;2.55;2.33;;;19.00;58.00;;;;;;6160889;23;20206;-86
2023/11/07 00:21:22;;;;;;;2.80;2.47;;;19.00;57.90;;;;;;6161050;23;20127;-86
2023/11/07 00:23:49;;;;;;;2.65;2.45;;;18.90;57.90;;;;;;6161993;23;20154;-86
2023/11/07 00:26:15;;;;;;;2.70;2.50;;;19.00;58.00;;;;;;6161019;23;20575;-85
2023/11/07 00:28:41;;;;;;;3.20;2.55;;;18.90;58.00;;;;;;6160989;23;20590;-85
2023/11/07 00:31:07;;;;;;;2.33;2.13;;;18.90;58.00;;;;;;6160432;23;20178;-86
2023/11/07 00:33:33;;;;;;;3.85;2.72;;;18.90;58.00;;;;;;6136147;23;20158;-85
2023/11/07 00:35:59;;;;;;;3.45;2.80;;;18.90;58.00;;;;;;6187045;23;20193;-87
2023/11/07 00:38:26;;;;;;;3.47;2.50;;;18.90;58.00;;;;;;6136103;23;20178;-86
2023/11/07 00:40:52;;;;;;;2.53;2.25;;;18.90;58.00;;;;;;6135778;23;20147;-86
2023/11/07 00:43:17;;;;;;;4.40;2.70;;;18.90;58.10;;;;;;6161079;23;20205;-86
2023/11/07 00:45:46;;;;;;;4.45;2.53;;;18.90;58.10;;;;;;6136197;23;20467;-88
2023/11/07 00:48:13;;;;;;;2.65;2.33;;;18.90;58.20;;;;;;6186913;23;20141;-86
2023/11/07 00:50:39;;;;;;;2.75;2.40;;;18.90;58.20;;;;;;6135737;23;20166;-86
2023/11/07 00:53:04;;;;;;;3.10;2.40;;;18.90;58.10;;;;;;6160670;23;20458;-86
2023/11/07 00:55:30;;;;;;;2.92;2.50;;;18.80;58.00;;;;;;6160756;23;20522;-85
2023/11/07 00:57:56;;;;;;;2.67;2.45;;;18.90;58.10;;;;;;6136162;23;20586;-85
2023/11/07 01:00:22;;;;;;;3.00;2.70;;;18.90;58.10;;;;;;6187174;23;20134;-87
2023/11/07 01:02:52;;;;;;;3.30;2.58;;;18.90;58.10;;;;;;6135826;23;20150;-85
2023/11/07 01:05:18;;;;;;;2.63;2.42;;;18.90;58.10;;;;;;6087085;23;20158;-86
2023/11/07 01:07:48;;;;;;;3.15;2.30;;;18.90;58.70;;;;;;6187169;23;20139;-87
2023/11/07 01:10:14;;;;;;;3.10;2.60;;;18.90;58.10;;;;;;6087368;23;20516;-86
2023/11/07 01:12:40;;;;;;;3.53;2.95;;;18.80;58.10;;;;;;6160744;23;20235;-86
2023/11/07 01:15:07;;;;;;;3.92;2.80;;;18.90;58.20;;;;;;6160682;23;20278;-86
2023/11/07 01:17:33;;;;;;;2.88;2.58;;;18.80;58.20;;;;;;6160554;23;20270;-86
2023/11/07 01:19:59;;;;;;;2.80;2.40;;;18.80;58.20;;;;;;6161332;23;20163;-87
2023/11/07 01:22:26;;;;;;;3.10;2.40;;;18.90;58.20;;;;;;6159990;23;20708;-87
2023/11/07 01:24:52;;;;;;;3.08;2.63;;;18.80;58.20;;;;;;6160501;23;20135;-86
2023/11/07 01:27:18;;;;;;;2.50;2.30;;;18.80;58.20;;;;;;6135515;23;20150;-86
2023/11/07 01:29:44;;;;;;;2.92;2.63;;;18.90;58.30;;;;;;6159813;23;20154;-86
2023/11/07 01:32:10;;;;;;;2.90;2.60;;;18.90;58.20;;;;;;6160124;23;20567;-87
2023/11/07 01:34:36;;;;;;;3.25;2.30;;;18.90;58.20;;;;;;6160120;23;20174;-85
2023/11/07 01:37:06;;;;;;;2.53;2.33;;;18.80;58.20;;;;;;6160786;23;20449;-86
2023/11/07 01:39:32;;;;;;;3.85;2.70;;;19.00;58.30;;;;;;6086602;23;20574;-87
2023/11/07 01:41:58;;;;;;;2.97;2.53;;;18.80;58.30;;;;;;6160113;23;20195;-86
2023/11/07 01:44:28;;;;;;;3.38;2.70;;;18.80;58.30;;;;;;6135344;23;20207;-87
2023/11/07 01:46:55;;;;;;;2.70;2.50;;;18.80;58.40;;;;;;6160321;23;20141;-86
2023/11/07 01:49:23;;;;;;;3.85;2.30;;;18.80;58.30;;;;;;6135357;23;20579;-85
2023/11/07 01:51:49;;;;;;;2.78;2.40;;;18.80;58.30;;;;;;6135509;23;20177;-86
2023/11/07 01:54:16;;;;;;;2.60;2.40;;;18.80;58.30;;;;;;6160330;23;20171;-87
2023/11/07 01:56:43;;;;;;;2.92;2.50;;;18.80;58.40;;;;;;6135790;23;20147;-86
2023/11/07 01:59:09;;;;;;;2.97;2.65;;;18.70;58.40;;;;;;6159900;23;20518;-85
2023/11/07 02:01:35;;;;;;;3.63;2.58;;;18.80;58.50;;;;;;6134916;23;20586;-87
2023/11/07 02:04:04;;;;;;;2.92;2.40;;;18.80;58.40;;;;;;6159686;23;20471;-86
2023/11/07 02:06:30;;;;;;;2.60;2.40;;;18.80;58.50;;;;;;6160291;23;20166;-87
2023/11/07 02:08:56;;;;;;;2.75;2.45;;;18.80;58.50;;;;;;6159825;23;20467;-86
2023/11/07 02:11:24;;;;;;;2.85;2.38;;;18.80;58.60;;;;;;6159913;23;20206;-87
2023/11/07 02:13:50;;;;;;;2.92;2.63;;;18.70;58.50;;;;;;6159733;23;20178;-86
2023/11/07 02:16:17;;;;;;;2.97;2.35;;;18.80;58.60;;;;;;6135875;23;20151;-86
2023/11/07 02:18:43;;;;;;;3.00;2.67;;;18.80;58.70;;;;;;6186745;23;20137;-86
2023/11/07 02:21:09;;;;;;;2.97;2.67;;;18.70;58.60;;;;;;6160120;23;20202;-86
2023/11/07 02:23:35;;;;;;;3.45;2.38;;;18.80;58.60;;;;;;6160116;23;20138;-86
2023/11/07 02:26:03;;;;;;;2.90;2.60;;;18.70;58.60;;;;;;6186803;23;20142;-86
2023/11/07 02:28:29;;;;;;;3.05;2.75;;;18.70;58.70;;;;;;6160069;23;20582;-86
2023/11/07 02:30:59;;;;;;;3.05;2.58;;;18.70;58.70;;;;;;6160098;23;20574;-85
2023/11/07 02:33:25;;;;;;;3.17;2.63;;;18.70;58.80;;;;;;6086260;23;20657;-86
2023/11/07 02:35:51;;;;;;;3.97;2.65;;;18.70;58.60;;;;;;6159569;23;20190;-87
2023/11/07 02:38:19;;;;;;;2.60;2.40;;;18.70;58.70;;;;;;6159650;23;20170;-87
2023/11/07 02:40:47;;;;;;;2.90;2.60;;;18.70;58.70;;;;;;6159490;23;20242;-85
2023/11/07 02:43:13;;;;;;;4.03;2.50;;;18.70;58.80;;;;;;6135137;23;20194;-88
2023/11/07 02:45:39;;;;;;;3.35;2.70;;;18.70;58.70;;;;;;6159774;23;20418;-87
2023/11/07 02:48:10;;;;;;;3.10;2.40;;;18.70;58.80;;;;;;6186153;23;20488;-87
2023/11/07 02:50:40;;;;;;;3.35;2.60;;;18.70;58.80;;;;;;6160628;23;20510;-86
2023/11/07 02:53:06;;;;;;;3.08;2.78;;;18.70;58.80;;;;;;6110436;23;20155;-87
2023/11/07 02:55:36;;;;;;;2.40;2.20;;;18.70;59.00;;;;;;6159475;23;20169;-86
2023/11/07 02:58:02;;;;;;;3.28;2.60;;;18.70;59.10;;;;;;6086358;23;20159;-87
2023/11/07 03:00:29;;;;;;;2.78;2.53;;;18.70;59.10;;;;;;6159532;23;20216;-87
2023/11/07 03:02:59;;;;;;;3.15;2.40;;;18.70;59.00;;;;;;6135679;23;20181;-88
2023/11/07 03:05:28;;;;;;;2.88;2.58;;;18.70;59.00;;;;;;6086277;23;20165;-88
2023/11/07 03:07:54;;;;;;;2.95;2.30;;;18.70;59.10;;;;;;6159463;23;20183;-87
2023/11/07 03:10:20;;;;;;;3.03;2.47;;;18.70;59.10;;;;;;6135183;23;20486;-86
2023/11/07 03:12:47;;;;;;;3.50;2.55;;;18.70;59.10;;;;;;6134722;23;20549;-86
2023/11/07 03:15:13;;;;;;;2.85;2.55;;;18.60;59.00;;;;;;6159349;23;20188;-86
2023/11/07 03:17:40;;;;;;;3.67;2.30;;;18.70;59.10;;;;;;6134702;23;20166;-87
2023/11/07 03:20:08;;;;;;;2.85;2.42;;;18.70;59.10;;;;;;6160053;23;20258;-86
2023/11/07 03:22:35;;;;;;;2.80;2.35;;;18.70;59.00;;;;;;6135898;23;20173;-86
2023/11/07 03:25:01;;;;;;;2.50;2.30;;;18.70;59.00;;;;;;6159952;23;20178;-87
2023/11/07 03:27:31;;;;;;;2.58;2.38;;;18.70;59.10;;;;;;6159287;23;20563;-87
2023/11/07 03:29:57;;;;;;;2.63;2.35;;;18.60;59.10;;;;;;6134429;23;20605;-87
2023/11/07 03:32:23;;;;;;;3.05;2.53;;;18.70;59.10;;;;;;6135266;23;20171;-86
2023/11/07 03:34:49;;;;;;;2.95;2.58;;;18.60;59.10;;;;;;6185829;23;20602;-87
2023/11/07 03:37:15;;;;;;;3.05;2.50;;;18.60;59.10;;;;;;6159269;23;20177;-85
2023/11/07 03:39:41;;;;;;;4.03;2.22;;;18.70;59.10;;;;;;6159537;23;20225;-86
2023/11/07 03:42:10;;;;;;;2.75;2.53;;;18.60;59.10;;;;;;6186513;23;20137;-85
2023/11/07 03:44:36;;;;;;;3.50;2.75;;;18.60;59.10;;;;;;6159553;23;20237;-86
2023/11/07 03:47:03;;;;;;;2.70;2.40;;;18.60;59.20;;;;;;6135520;23;20153;-87
2023/11/07 03:49:31;;;;;;;2.92;2.63;;;18.60;59.30;;;;;;6134949;23;20155;-86
2023/11/07 03:51:57;;;;;;;2.53;2.33;;;18.60;59.20;;;;;;6159436;23;20165;-86
2023/11/07 03:54:23;;;;;;;2.75;2.22;;;18.60;59.20;;;;;;6159068;23;20194;-87
2023/11/07 03:56:53;;;;;;;3.05;2.50;;;18.60;59.20;;;;;;6159132;23;20130;-86
2023/11/07 03:59:19;;;;;;;2.55;2.35;;;18.60;59.20;;;;;;6061573;23;20151;-86
2023/11/07 04:01:45;;;;;;;2.75;2.50;;;18.60;59.20;;;;;;6159663;23;20158;-86
2023/11/07 04:04:11;;;;;;;2.40;2.15;;;18.60;59.10;;;;;;6185292;23;20131;-85
2023/11/07 04:06:37;;;;;;;2.60;2.40;;;18.60;59.20;;;;;;6134710;23;20146;-86
2023/11/07 04:09:04;;;;;;;4.43;2.65;;;18.60;59.20;;;;;;6134376;23;20209;-86
2023/11/07 04:11:30;;;;;;;2.78;2.47;;;18.60;59.40;;;;;;6159814;23;20131;-85
2023/11/07 04:13:56;;;;;;;3.30;2.50;;;18.50;59.20;;;;;;6159269;23;20214;-86
2023/11/07 04:16:22;;;;;;;3.10;2.35;;;18.60;59.40;;;;;;6134808;23;20571;-86
2023/11/07 04:18:49;;;;;;;2.50;2.30;;;18.60;59.30;;;;;;6159008;23;20606;-87
2023/11/07 04:21:15;;;;;;;2.50;2.20;;;18.60;59.30;;;;;;6135981;23;20213;-86
2023/11/07 04:23:41;;;;;;;2.47;2.22;;;18.60;59.40;;;;;;6187453;23;20180;-87
2023/11/07 04:26:08;;;;;;;3.00;2.70;;;18.60;59.40;;;;;;6160877;23;20463;-87
2023/11/07 04:28:37;;;;;;;2.78;2.45;;;18.60;59.20;;;;;;6162035;23;20581;-86
2023/11/07 04:31:07;;;;;;;2.97;2.65;;;18.50;59.20;;;;;;6137672;23;20147;-86
2023/11/07 04:33:38;;;;;;;3.20;2.60;;;18.60;59.40;;;;;;6087589;23;20162;-86
2023/11/07 04:36:05;;;;;;;2.85;2.60;;;18.60;59.40;;;;;;6137021;23;20157;-87
2023/11/07 04:38:31;;;;;;;2.97;2.50;;;18.60;59.40;;;;;;6161688;23;20597;-87
2023/11/07 04:40:57;;;;;;;2.97;2.55;;;18.60;59.30;;;;;;6160990;23;20143;-85
2023/11/07 04:43:25;;;;;;;3.42;2.50;;;18.60;59.30;;;;;;6161246;23;20197;-86
2023/11/07 04:45:51;;;;;;;2.75;2.30;;;18.60;59.30;;;;;;6137159;23;20151;-87
2023/11/07 04:48:19;;;;;;;2.65;2.45;;;18.60;59.40;;;;;;6136020;23;20182;-86
2023/11/07 04:50:45;;;;;;;2.83;2.53;;;18.50;59.40;;;;;;6137219;23;20162;-86
2023/11/07 04:53:11;;;;;;;3.03;2.67;;;18.60;59.40;;;;;;6186948;23;20135;-87
2023/11/07 04:55:37;;;;;;;3.55;2.60;;;18.60;59.30;;;;;;6160926;23;20245;-87
2023/11/07 04:58:03;;;;;;;2.60;2.40;;;18.60;59.40;;;;;;6136579;23;20143;-87
2023/11/07 05:00:29;;;;;;;2.80;2.50;;;18.60;59.40;;;;;;6160611;23;20210;-87
2023/11/07 05:02:55;;;;;;;2.95;2.65;;;18.60;59.40;;;;;;6160652;23;20531;-85
2023/11/07 05:05:25;;;;;;;2.92;2.47;;;18.60;59.40;;;;;;6160606;23;20214;-85
2023/11/07 05:07:51;;;;;;;2.80;2.50;;;18.60;59.60;;;;;;6110922;23;20486;-87
2023/11/07 05:10:21;;;;;;;3.63;2.80;;;18.60;59.50;;;;;;6111032;23;20154;-87
2023/11/07 05:12:47;;;;;;;2.85;2.55;;;18.50;59.40;;;;;;6110746;23;20526;-88
2023/11/07 05:15:13;;;;;;;2.90;2.60;;;18.60;59.40;;;;;;6160338;23;20163;-86
2023/11/07 05:17:39;;;;;;;2.67;2.45;;;18.50;59.40;;;;;;6160444;23;20147;-86
2023/11/07 05:20:10;;;;;;;3.03;2.40;;;18.50;59.50;;;;;;6135905;23;20213;-87
2023/11/07 05:22:36;;;;;;;2.75;2.50;;;18.60;59.50;;;;;;6136484;23;20158;-86
2023/11/07 05:25:06;;;;;;;2.63;2.42;;;18.50;59.50;;;;;;6160273;23;20150;-87
2023/11/07 05:27:37;;;;;;;2.50;2.30;;;18.60;59.60;;;;;;6136261;23;20151;-88
2023/11/07 05:30:03;;;;;;;2.97;2.25;;;18.60;59.50;;;;;;6086681;23;20486;-86
2023/11/07 05:32:29;;;;;;;2.50;2.30;;;18.50;59.60;;;;;;6160227;23;20142;-87
2023/11/07 05:34:56;;;;;;;2.38;2.17;;;18.50;60.40;;;;;;6135529;23;20182;-86
2023/11/07 05:37:22;;;;;;;3.38;2.47;;;18.50;59.60;;;;;;6135844;23;20146;-87
2023/11/07 05:39:50;;;;;;;2.65;2.13;;;18.60;59.70;;;;;;6136408;23;20482;-87
2023/11/07 05:42:16;;;;;;;2.70;2.50;;;18.50;59.60;;;;;;6136547;23;20627;-87
2023/11/07 05:44:42;;;;;;;2.90;2.25;;;18.50;59.60;;;;;;6159935;23;20194;-86
2023/11/07 05:47:08;;;;;;;3.92;2.15;;;18.60;59.60;;;;;;6136552;23;20160;-86
2023/11/07 05:49:35;;;;;;;2.72;2.53;;;18.60;59.50;;;;;;6135529;23;20527;-85
2023/11/07 05:52:02;;;;;;;2.53;2.33;;;18.50;59.60;;;;;;6136327;23;20161;-85
2023/11/07 05:54:37;;;;;;;2.80;2.58;;;18.60;59.60;;;;;;6135600;23;20185;-85
2023/11/07 05:57:03;;;;;;;2.40;2.20;;;18.60;59.50;;;;;;6160015;23;20161;-87
2023/11/07 05:59:29;;;;;;;2.78;2.50;;;18.60;59.50;;;;;;6186708;23;20131;-87
2023/11/07 06:01:55;;;;;;;3.03;2.47;;;18.60;59.50;;;;;;6160363;23;20147;-85
2023/11/07 06:04:30;;;;;;;3.38;2.33;;;18.50;59.50;;;;;;6135834;23;20153;-86
2023/11/07 06:06:57;;;;;;;2.83;2.42;;;18.60;59.60;;;;;;6136850;23;20161;-86
2023/11/07 06:09:26;;;;;;;3.00;2.60;;;18.60;59.50;;;;;;6159745;23;20190;-85
2023/11/07 06:11:53;;;;;;;2.80;2.50;;;18.50;59.50;;;;;;6137354;23;20567;-86
2023/11/07 06:14:23;;;;;;;2.55;2.33;;;18.60;59.50;;;;;;6161974;23;20518;-86
2023/11/07 06:16:50;;;;;;;2.88;2.58;;;18.60;59.50;;;;;;6161583;23;20150;-88
2023/11/07 06:19:16;;;;;;;3.13;2.28;;;18.50;59.60;;;;;;6136180;23;20178;-88
2023/11/07 06:21:42;;;;;;;2.97;2.47;;;18.50;59.50;;;;;;6112597;23;20174;-87
2023/11/07 06:24:10;;;;;;;2.38;2.17;;;18.50;59.60;;;;;;6136950;23;20147;-86
2023/11/07 06:26:36;;;;;;;3.50;2.53;;;18.50;59.80;;;;;;6135689;23;20229;-87
2023/11/07 06:29:04;;;;;;;3.35;2.25;;;18.50;59.80;;;;;;6137723;23;20615;-86
2023/11/07 06:31:37;;;;;;;2.50;2.30;;;18.50;59.80;;;;;;6137475;23;20147;-87
2023/11/07 06:34:10;;;;;;;2.92;2.60;;;18.50;60.00;;;;;;6137080;23;20175;-86
2023/11/07 06:36:41;;;;;;;3.03;2.60;;;18.40;60.00;;;;;;6163432;23;20566;-84
2023/11/07 06:39:12;;;;;;;2.55;2.35;;;18.40;59.90;;;;;;6112927;23;20719;-86
2023/11/07 06:41:40;;;;;;;2.47;2.28;;;18.50;59.90;;;;;;6113173;23;20591;-85
2023/11/07 06:44:12;;;;;;;2.38;2.10;;;18.50;59.60;;;;;;6089758;23;20226;-86
2023/11/07 06:46:43;;;;;;;3.15;2.53;;;18.50;59.60;;;;;;6118817;23;20154;-86
2023/11/07 06:49:10;;;;;;;2.78;2.20;;;18.50;59.60;;;;;;6118781;23;20164;-87
2023/11/07 06:51:43;;;;;;;2.70;2.40;;;18.50;59.60;;;;;;6165251;23;20203;-86
2023/11/07 06:54:12;;;;;;;2.58;2.17;;;18.50;59.50;;;;;;6070173;23;20213;-87
2023/11/07 06:56:41;;;;;;;2.47;2.10;;;18.50;59.50;;;;;;6092729;23;20156;-86
2023/11/07 06:59:11;;;;;;;2.88;2.10;;;18.60;59.30;;;;;;6068636;23;20505;-84
2023/11/07 07:01:44;;;;;;;2.65;2.45;;;18.60;60.00;;;;;;6090654;23;20185;-85
2023/11/07 07:04:13;;;;;;;2.50;2.30;;;18.70;59.30;;;;;;6067451;23;20177;-87
2023/11/07 07:06:42;;;;;;;2.45;2.25;;;18.70;59.20;;;;;;6113016;23;20154;-85
2023/11/07 07:09:08;;;;;;;2.38;1.92;;;18.60;59.20;;;;;;6063770;23;20159;-86
2023/11/07 07:11:35;;;;;;;2.60;2.40;;;18.70;59.10;;;;;;6136419;23;20237;-86
2023/11/07 07:14:03;;;;;;;2.45;2.25;;;18.70;59.00;;;;;;6087132;23;20193;-86
2023/11/07 07:16:30;;;;;;;2.20;2.00;;;18.70;59.00;;;;;;6111656;23;20177;-86
2023/11/07 07:19:06;;;;;;;3.47;2.40;;;18.70;58.80;;;;;;6137281;23;20490;-85
2023/11/07 07:21:34;;;;;;;2.03;1.92;;;18.80;58.70;;;;;;6137937;23;20154;-86
2023/11/07 07:24:15;;;;;;;2.75;1.98;;;18.70;58.70;;;;;;6088673;23;20157;-85
2023/11/07 07:26:46;;;;;;;2.22;2.03;;;18.80;58.50;;;;;;6098496;23;20146;-86
2023/11/07 07:29:13;;;;;;;3.22;2.20;;;18.70;58.40;;;;;;6086988;23;20265;-85
2023/11/07 07:31:43;;;;;;;2.38;2.00;;;18.80;58.30;;;;;;6161846;23;20186;-84
2023/11/07 07:34:09;;;;;;;1.88;1.75;;;18.80;58.30;;;;;;6086605;23;20186;-85
2023/11/07 07:36:43;;;;;;;2.55;2.00;;;18.80;58.30;;;;;;6160156;23;20213;-86
2023/11/07 07:39:27;;;;;;;2.40;2.20;;;18.90;58.20;;;;;;6158809;23;20159;-83
2023/11/07 07:42:09;;;;;;;2.70;2.10;;;18.90;58.20;;;;;;6136950;23;20805;-85
2023/11/07 07:44:39;;;;;;;2.10;1.90;;;18.90;58.10;;;;;;6160790;23;20205;-86
2023/11/07 07:47:07;;;;;;;2.22;2.00;;;18.90;57.90;;;;;;6159809;23;20209;-84
2023/11/07 07:49:33;;;;;;;2.40;2.20;;;18.90;57.90;;;;;;6135412;23;20193;-85
2023/11/07 07:51:59;;;;;;;2.35;2.08;;;18.90;57.80;;;;;;6109953;23;20524;-85
2023/11/07 07:54:28;;;;;;;2.20;2.00;;;18.90;57.80;;;;;;6137568;23;20209;-86
2023/11/07 07:56:55;;;;;;;2.20;2.00;;;18.90;57.80;;;;;;6140144;23;20192;-86
2023/11/07 07:59:23;;;;;;;2.13;1.92;;;18.90;57.80;;;;;;6136509;23;20151;-86
2023/11/07 08:01:55;;;;;;;3.17;2.20;;;18.90;57.70;;;;;;6137060;23;20150;-86
2023/11/07 08:04:23;;;;;;;2.13;1.95;;;18.90;57.80;;;;;;6091770;23;20166;-86
2023/11/07 08:06:49;;;;;;;2.30;2.10;;;18.90;57.80;;;;;;6139500;23;20209;-86
2023/11/07 08:09:18;;;;;;;2.30;2.10;;;18.90;57.80;;;;;;6140151;23;20157;-87
2023/11/07 08:11:53;;;;;;;1.92;1.77;;;18.90;57.70;;;;;;6141310;23;20571;-87
2023/11/07 08:14:20;;;;;;;2.55;2.15;;;18.90;57.60;;;;;;6116024;23;20177;-87
2023/11/07 08:16:46;;;;;;;2.20;2.00;;;18.90;57.50;;;;;;6140674;23;20143;-86
2023/11/07 08:19:12;;;;;;;2.83;1.85;;;18.90;57.40;;;;;;6141307;23;20198;-86
2023/11/07 08:21:43;;;;;;;2.70;1.95;;;18.90;57.30;;;;;;6167427;23;20150;-86
2023/11/07 08:24:12;;;;;;;1.95;1.75;;;18.90;57.40;;;;;;6145597;23;20162;-87
2023/11/07 08:26:39;;;;;;;1.85;1.75;;;19.00;57.40;;;;;;6167821;23;20138;-87
2023/11/07 08:29:07;;;;;;;1.95;1.85;;;18.90;57.30;;;;;;6142530;23;20135;-86
2023/11/07 08:31:34;;;;;;;2.22;2.03;;;18.90;57.40;;;;;;6092067;23;20162;-88
2023/11/07 08:34:00;;;;;;;2.45;2.20;;;19.00;57.40;;;;;;6191799;23;20167;-86
2023/11/07 08:36:30;;;;;;;2.17;1.98;;;19.00;57.50;;;;;;6164953;23;20134;-87
2023/11/07 08:38:56;;;;;;;2.10;1.90;;;18.90;57.50;;;;;;6116486;23;20150;-86
2023/11/07 08:41:23;;;;;;;2.20;2.00;;;18.90;57.60;;;;;;6143442;23;20161;-87
2023/11/07 08:43:51;;;;;;;2.10;1.90;;;18.90;57.50;;;;;;6142423;23;20190;-86
2023/11/07 08:46:23;;;;;;;3.97;2.00;;;18.90;57.50;;;;;;6140211;23;20480;-87
2023/11/07 08:48:50;;;;;;;2.22;1.90;;;19.00;57.50;;;;;;6140702;23;20151;-87
2023/11/07 08:51:17;;;;;;;2.35;1.90;;;18.90;57.50;;;;;;6137879;23;20189;-86
2023/11/07 08:53:45;;;;;;;2.22;2.00;;;18.90;57.40;;;;;;6137989;23;20162;-86
2023/11/07 08:56:12;;;;;;;2.40;2.20;;;19.00;57.40;;;;;;6166216;23;20139;-87
2023/11/07 08:58:39;;;;;;;2.67;2.20;;;19.00;57.50;;;;;;6166237;23;20238;-87
2023/11/07 09:01:05;;;;;;;1.95;1.80;;;19.00;57.40;;;;;;6165518;23;20135;-86
2023/11/07 09:03:31;;;;;;;2.20;2.00;;;18.90;57.50;;;;;;6191317;23;20555;-86
2023/11/07 09:05:57;;;;;;;2.22;2.03;;;18.90;57.50;;;;;;6137882;23;20601;-86
2023/11/07 09:08:26;;;;;;;2.30;2.10;;;19.00;57.50;;;;;;6138535;23;20158;-85
2023/11/07 09:10:52;;;;;;;1.90;1.70;;;19.00;57.40;;;;;;6162942;23;20159;-85
2023/11/07 09:13:18;;;;;;;2.33;1.90;;;19.00;57.40;;;;;;6138282;23;20187;-85
2023/11/07 09:15:44;;;;;;;3.55;1.90;;;19.00;57.40;;;;;;6162504;23;20256;-86
2023/11/07 10:48:21;;;;;;;1.30;1.20;;;19.40;56.90;;;;;;6189677;22;20458;-88
2023/11/07 10:50:47;;;;;;;2.58;1.50;;;19.40;56.90;;;;;;6138135;23;20189;-86
2023/11/07 10:53:21;;;;;;;1.20;1.08;;;19.40;56.90;;;;;;6193206;23;20131;-87
2023/11/07 10:55:55;;;;;;;1.13;1.02;;;19.30;56.90;;;;;;6152162;23;20189;-87
2023/11/07 10:58:27;;;;;;;1.35;1.25;;;19.40;57.70;;;;;;6125402;23;20161;-87
2023/11/07 11:00:54;;;;;;;1.80;1.30;;;19.40;56.90;;;;;;6148493;23;20446;-88
2023/11/07 11:03:22;;;;;;;1.50;1.30;;;19.50;56.90;;;;;;6149336;23;20158;-87
2023/11/07 11:05:53;;;;;;;1.33;1.13;;;19.40;56.90;;;;;;6149078;23;20192;-86
2023/11/07 11:08:19;;;;;;;1.88;1.13;;;19.50;57.00;;;;;;6148434;23;20177;-88
2023/11/07 11:10:47;;;;;;;1.48;1.10;;;19.50;56.90;;;;;;6181550;23;20154;-88
2023/11/07 11:13:17;;;;;;;2.90;1.10;;;19.40;56.80;;;;;;6193014;23;20130;-87
2023/11/07 11:15:43;;;;;;;1.20;1.10;;;19.50;57.00;;;;;;6143181;23;20534;-86
2023/11/07 11:18:10;;;;;;;2.05;1.20;;;19.40;57.00;;;;;;6167781;23;20138;-85
2023/11/07 11:21:16;;;;;;;1.30;1.20;;;19.40;56.90;;;;;;6143258;23;20141;-87
2023/11/07 11:24:03;;;;;;;1.40;1.30;;;19.40;56.90;;;;;;6146868;23;20138;-86
2023/11/07 11:26:43;;;;;;;1.25;1.00;;;19.40;56.90;;;;;;6170358;23;20192;-87
2023/11/07 11:29:25;;;;;;;1.23;1.10;;;19.50;56.90;;;;;;6170293;23;20141;-86
2023/11/07 11:31:51;;;;;;;1.23;1.13;;;19.50;56.80;;;;;;6165916;23;20138;-86
2023/11/07 11:34:29;;;;;;;1.00;0.90;;;19.40;56.70;;;;;;6166088;23;20529;-88
2023/11/07 11:37:01;;;;;;;1.30;1.20;;;19.40;56.80;;;;;;6140661;23;20150;-87
2023/11/07 11:39:42;;;;;;;1.00;0.90;;;19.50;56.80;;;;;;6116052;23;20145;-87
2023/11/07 11:42:11;;;;;;;0.90;0.90;;;19.50;56.70;;;;;;6165144;23;20138;-87
2023/11/07 11:44:42;;;;;;;1.20;1.10;;;19.50;56.80;;;;;;6142766;23;20148;-88
2023/11/07 11:47:09;;;;;;;2.03;1.30;;;19.50;56.70;;;;;;6166013;23;20627;-86
2023/11/07 11:49:50;;;;;;;1.20;1.10;;;19.40;56.70;;;;;;6191885;23;20198;-86
2023/11/07 11:52:34;;;;;;;1.00;0.90;;;19.50;56.80;;;;;;6147536;23;20165;-87
2023/11/07 11:55:04;;;;;;;1.25;1.00;;;19.40;56.60;;;;;;6193479;23;20181;-87
2023/11/07 11:57:38;;;;;;;1.20;1.08;;;19.50;57.30;;;;;;6149378;23;20219;-86
2023/11/07 12:00:12;;;;;;;0.80;0.80;;;19.50;56.60;;;;;;6148028;23;20181;-87
2023/11/07 12:02:40;;;;;;;1.02;0.93;;;19.50;56.70;;;;;;6193124;23;20133;-86
2023/11/07 12:05:24;;;;;;;1.33;1.00;;;19.50;56.60;;;;;;6147437;23;20607;-88
2023/11/07 12:07:54;;;;;;;0.90;0.90;;;19.50;56.60;;;;;;6144252;23;20217;-86
2023/11/07 12:10:27;;;;;;;2.08;1.00;;;19.50;56.60;;;;;;6120482;23;20157;-87
2023/11/07 12:13:01;;;;;;;0.85;0.85;;;19.40;56.60;;;;;;6146370;23;20156;-86
2023/11/07 12:15:29;;;;;;;0.77;0.77;;;19.50;56.60;;;;;;6122658;23;20181;-86
2023/11/07 12:18:06;;;;;;;0.80;0.80;;;19.40;56.60;;;;;;6145551;23;20154;-87
2023/11/07 12:20:43;;;;;;;0.80;0.80;;;19.50;56.60;;;;;;6129786;23;20149;-86
2023/11/07 12:23:12;;;;;;;1.10;0.90;;;19.50;56.60;;;;;;6140002;23;20233;-87
2023/11/07 12:25:55;;;;;;;0.60;0.60;;;19.40;56.60;;;;;;6139504;23;20630;-86
2023/11/07 12:28:23;;;;;;;0.80;0.80;;;19.40;56.60;;;;;;6093973;23;20606;-86
2023/11/07 12:30:56;;;;;;;0.90;0.90;;;19.50;56.60;;;;;;6093164;23;20140;-86
2023/11/07 12:33:43;;;;;;;1.08;0.90;;;19.50;56.60;;;;;;6067250;23;20721;-86
2023/11/07 12:36:15;;;;;;;1.10;1.00;;;19.40;56.50;;;;;;6116461;23;20310;-87
2023/11/07 12:38:42;;;;;;;0.63;0.63;;;19.40;56.50;;;;;;6064728;23;20607;-87
2023/11/07 12:41:11;;;;;;;1.08;1.00;;;19.40;56.40;;;;;;6136402;23;20146;-86
2023/11/07 12:43:40;;;;;;;0.80;0.80;;;19.40;56.50;;;;;;6074954;23;20642;-87
2023/11/07 12:46:11;;;;;;;0.60;0.60;;;19.50;56.50;;;;;;6074803;23;20192;-87
2023/11/07 12:48:37;;;;;;;0.80;0.80;;;19.50;56.50;;;;;;6059471;23;20568;-86
2023/11/07 12:51:08;;;;;;;0.73;0.73;;;19.40;56.40;;;;;;5996679;23;20242;-85
2023/11/07 12:53:44;;;;;;;0.93;0.80;;;19.50;56.40;;;;;;5954697;23;20151;-85
2023/11/07 12:56:10;;;;;;;1.08;0.90;;;19.50;56.40;;;;;;5994973;23;20214;-88
2023/11/07 12:58:45;;;;;;;0.65;0.65;;;19.50;56.40;;;;;;6018595;23;20576;-84
2023/11/07 13:01:16;;;;;;;0.90;0.90;;;19.50;56.40;;;;;;5974241;23;20222;-86
2023/11/07 13:03:45;;;;;;;0.70;0.70;;;19.50;56.30;;;;;;5971401;23;20155;-86
2023/11/07 13:06:13;;;;;;;0.75;0.75;;;19.40;56.30;;;;;;5970353;23;20484;-87
2023/11/07 13:08:41;;;;;;;0.80;0.80;;;19.40;56.40;;;;;;6016306;23;20202;-88
2023/11/07 13:11:26;;;;;;;1.00;0.90;;;19.40;56.40;;;;;;5908325;24;20310;-86
2023/11/07 13:13:53;;;;;;;0.70;0.70;;;19.40;56.40;;;;;;5907674;24;20235;-87
2023/11/07 13:16:20;;;;;;;0.80;0.73;;;19.40;56.40;;;;;;5932555;24;20561;-86
2023/11/07 13:18:47;;;;;;;0.85;0.70;;;19.40;56.40;;;;;;5906448;24;20643;-87
2023/11/07 13:21:14;;;;;;;0.82;0.82;;;19.50;56.30;;;;;;5978175;23;20155;-86
2023/11/07 13:23:40;;;;;;;0.80;0.70;;;19.40;56.30;;;;;;6020338;23;20724;-86
2023/11/07 13:26:07;;;;;;;0.75;0.73;;;19.40;56.30;;;;;;6022113;23;20189;-85
2023/11/07 13:28:36;;;;;;;0.55;0.55;;;19.40;57.00;;;;;;5977291;23;20161;-87
2023/11/07 13:31:22;;;;;;;0.85;0.70;;;19.40;56.20;;;;;;6045990;23;20209;-88
2023/11/07 13:33:50;;;;;;;0.73;0.70;;;19.50;56.20;;;;;;5940962;24;20162;-87
2023/11/07 13:36:17;;;;;;;0.70;0.60;;;19.50;56.20;;;;;;5959855;24;20191;-88
2023/11/07 13:38:46;;;;;;;0.98;0.85;;;19.50;56.20;;;;;;5959056;24;20193;-87
2023/11/07 13:41:12;;;;;;;1.42;0.70;;;19.50;56.10;;;;;;5969950;23;20170;-88
2023/11/07 13:43:45;;;;;;;1.02;0.80;;;19.50;56.00;;;;;;6048722;23;20134;-89
2023/11/07 13:46:17;;;;;;;0.70;0.70;;;19.40;56.10;;;;;;6000588;23;20166;-89
2023/11/07 13:48:43;;;;;;;0.63;0.60;;;19.40;56.10;;;;;;6008686;23;20201;-84
2023/11/07 13:51:09;;;;;;;0.70;0.70;;;19.40;56.00;;;;;;6052470;23;20153;-86
2023/11/07 13:53:37;;;;;;;2.33;0.85;;;19.50;56.10;;;;;;6073814;23;20228;-87
2023/11/07 13:56:06;;;;;;;0.80;0.70;;;19.40;56.00;;;;;;6054691;23;20211;-87
2023/11/07 13:58:39;;;;;;;1.05;0.80;;;19.50;55.90;;;;;;6091541;23;20144;-87
2023/11/07 14:01:09;;;;;;;0.95;0.73;;;19.40;55.90;;;;;;6051525;23;20157;-86
2023/11/07 14:03:39;;;;;;;0.60;0.60;;;19.40;56.10;;;;;;6051255;23;20153;-86
2023/11/07 14:06:06;;;;;;;1.60;0.60;;;19.40;56.00;;;;;;6050928;23;20246;-86
2023/11/07 14:08:32;;;;;;;0.63;0.60;;;19.40;56.00;;;;;;6049834;23;20150;-87
2023/11/07 14:10:59;;;;;;;0.57;0.57;;;19.40;55.80;;;;;;6073081;23;20157;-86
2023/11/07 14:13:26;;;;;;;1.75;0.65;;;19.40;55.80;;;;;;6051027;23;20149;-85
2023/11/07 14:15:54;;;;;;;0.93;0.80;;;19.40;55.80;;;;;;6046608;23;20208;-84
2023/11/07 14:18:20;;;;;;;0.80;0.77;;;19.40;55.80;;;;;;6021270;23;20138;-87
2023/11/07 14:20:48;;;;;;;0.60;0.60;;;19.50;55.80;;;;;;6068074;23;20187;-84
2023/11/07 14:23:15;;;;;;;0.60;0.50;;;19.50;56.10;;;;;;6045850;23;20240;-85
2023/11/07 14:25:41;;;;;;;0.65;0.52;;;19.50;55.80;;;;;;6043477;23;20220;-84